Time;durP1;ratioP1;P1;durP2;ratioP2;P2;SDS_P1;SDS_P2;PMS_P1;PMS_P2;Temp;Humidity;BMP_temperature;BMP_pressure;BME280_temperature;BME280_humidity;BME280_pressure;Samples;Min_cycle;Max_cycle;Signal;HPM_P1;HPM_P2
2023/03/20 00:00:09;;;;;;;45.95;26.17;;;;;;;;;;4953063;28;20023;-78
2023/03/20 00:02:37;;;;;;;46.38;25.48;;;;;;;;;;4951890;28;20058;-79
2023/03/20 00:05:15;;;;;;;45.30;26.15;;;;;;;;;;4951337;29;20031;-78
2023/03/20 00:07:41;;;;;;;43.03;24.88;;;;;;;;;;4955074;28;20032;-77
2023/03/20 00:10:08;;;;;;;42.25;24.30;;;;;;;;;;4950825;28;20027;-78
2023/03/20 00:12:34;;;;;;;51.78;24.15;;;;;;;;;;4952419;29;20027;-78
2023/03/20 00:15:02;;;;;;;47.03;24.88;;;;;;;;;;4951122;28;20023;-78
2023/03/20 00:17:27;;;;;;;41.92;24.13;;;;;;;;;;4952196;28;20027;-78
2023/03/20 00:19:53;;;;;;;43.85;24.00;;;;;;;;;;4952242;29;20034;-78
2023/03/20 00:22:18;;;;;;;45.92;24.15;;;;;;;;;;4950547;29;20027;-78
2023/03/20 00:24:44;;;;;;;45.88;24.35;;;;;;;;;;4950847;28;20020;-78
2023/03/20 00:27:13;;;;;;;44.97;25.15;;;;;;;;;;4951889;29;20023;-78
2023/03/20 00:29:39;;;;;;;44.45;24.73;;;;;;;;;;4950267;28;20050;-78
2023/03/20 00:32:11;;;;;;;48.53;25.23;;;;;;;;;;4950255;28;20357;-78
2023/03/20 00:34:36;;;;;;;51.30;26.15;;;;;;;;;;4952052;28;20036;-78
2023/03/20 00:37:02;;;;;;;43.85;24.85;;;;;;;;;;4950318;28;20050;-78
2023/03/20 00:39:28;;;;;;;42.63;24.98;;;;;;;;;;4954698;29;20027;-78
2023/03/20 00:42:01;;;;;;;47.70;26.80;;;;;;;;;;4956390;29;20126;-78
2023/03/20 00:44:49;;;;;;;47.10;25.73;;;;;;;;;;4956185;28;20029;-79
2023/03/20 00:47:23;;;;;;;48.83;25.13;;;;;;;;;;4959027;29;20086;-78
2023/03/20 00:49:51;;;;;;;43.20;25.77;;;;;;;;;;4958617;28;20058;-78
2023/03/20 00:52:18;;;;;;;45.90;24.67;;;;;;;;;;4955414;28;20082;-78
2023/03/20 00:54:43;;;;;;;51.53;26.05;;;;;;;;;;4955197;28;20078;-78
2023/03/20 00:57:21;;;;;;;43.22;25.33;;;;;;;;;;4955296;29;20027;-79
2023/03/20 01:00:17;;;;;;;47.28;26.35;;;;;;;;;;4957259;29;20085;-78
2023/03/20 01:02:43;;;;;;;42.35;24.23;;;;;;;;;;4953933;29;20039;-78
2023/03/20 01:05:09;;;;;;;49.60;28.52;;;;;;;;;;4956277;29;20027;-78
2023/03/20 01:07:35;;;;;;;48.20;26.90;;;;;;;;;;4954884;29;20372;-78
2023/03/20 01:10:00;;;;;;;50.60;27.58;;;;;;;;;;4954491;28;20031;-77
2023/03/20 01:12:27;;;;;;;51.05;28.63;;;;;;;;;;4954635;28;20392;-78
2023/03/20 01:14:55;;;;;;;49.77;27.97;;;;;;;;;;4955323;29;20070;-77
2023/03/20 01:17:21;;;;;;;54.63;27.65;;;;;;;;;;4955533;28;20037;-78
2023/03/20 01:19:49;;;;;;;55.08;27.35;;;;;;;;;;4953715;28;20027;-78
2023/03/20 01:22:16;;;;;;;46.10;26.70;;;;;;;;;;4954927;28;20313;-78
2023/03/20 01:24:42;;;;;;;50.95;27.52;;;;;;;;;;4954156;28;20042;-78
2023/03/20 01:27:13;;;;;;;45.40;27.33;;;;;;;;;;4954179;29;20073;-77
2023/03/20 01:29:39;;;;;;;51.58;26.75;;;;;;;;;;4955454;28;20035;-77
2023/03/20 01:32:11;;;;;;;51.03;28.87;;;;;;;;;;4955147;29;20050;-79
2023/03/20 01:34:37;;;;;;;46.53;26.80;;;;;;;;;;4953613;28;20040;-77
2023/03/20 01:37:03;;;;;;;51.30;28.00;;;;;;;;;;4955890;29;20059;-78
2023/03/20 01:39:33;;;;;;;51.60;28.50;;;;;;;;;;4964402;28;20113;-78
2023/03/20 01:41:59;;;;;;;48.67;27.30;;;;;;;;;;4976063;28;20471;-79
2023/03/20 01:44:30;;;;;;;53.57;27.77;;;;;;;;;;4974382;28;20591;-78
2023/03/20 01:46:57;;;;;;;46.83;28.40;;;;;;;;;;4972621;28;20037;-78
2023/03/20 01:49:23;;;;;;;54.23;26.77;;;;;;;;;;4973028;28;20542;-76
2023/03/20 01:51:50;;;;;;;57.00;28.43;;;;;;;;;;4972534;28;20033;-77
2023/03/20 01:54:18;;;;;;;47.40;26.20;;;;;;;;;;4973577;28;20371;-78
2023/03/20 01:57:02;;;;;;;52.53;26.77;;;;;;;;;;4974194;28;20034;-77
2023/03/20 01:59:43;;;;;;;44.30;24.73;;;;;;;;;;4972803;28;20144;-78
2023/03/20 02:02:14;;;;;;;43.63;22.93;;;;;;;;;;4972314;28;20031;-75
2023/03/20 02:04:43;;;;;;;49.67;24.65;;;;;;;;;;4973270;28;20173;-78
2023/03/20 02:07:11;;;;;;;44.67;23.97;;;;;;;;;;4972397;28;20027;-77
2023/03/20 02:09:37;;;;;;;49.57;26.00;;;;;;;;;;4973972;28;20420;-78
2023/03/20 02:12:03;;;;;;;46.03;24.93;;;;;;;;;;4972014;28;20196;-78
2023/03/20 02:14:30;;;;;;;50.67;25.63;;;;;;;;;;4973194;28;20109;-78
2023/03/20 02:16:56;;;;;;;39.63;23.80;;;;;;;;;;4972212;28;20363;-78
2023/03/20 02:19:31;;;;;;;51.60;26.37;;;;;;;;;;4971982;28;20110;-78
2023/03/20 02:22:23;;;;;;;42.87;23.07;;;;;;;;;;4973579;28;20448;-78
2023/03/20 02:25:14;;;;;;;48.57;25.93;;;;;;;;;;4972251;28;20031;-78
2023/03/20 02:28:01;;;;;;;45.90;23.67;;;;;;;;;;4972131;28;20114;-79
2023/03/20 02:30:39;;;;;;;42.33;24.33;;;;;;;;;;4972966;28;20022;-79
2023/03/20 02:33:31;;;;;;;47.57;23.67;;;;;;;;;;4972075;28;20034;-79
2023/03/20 02:35:59;;;;;;;42.40;24.75;;;;;;;;;;4971938;28;20035;-79
2023/03/20 02:38:56;;;;;;;38.57;23.80;;;;;;;;;;4971352;28;20063;-80
2023/03/20 02:41:42;;;;;;;44.80;24.03;;;;;;;;;;4974002;28;20019;-79
2023/03/20 02:44:13;;;;;;;41.80;22.33;;;;;;;;;;4973106;28;20023;-79
2023/03/20 02:46:57;;;;;;;45.30;23.60;;;;;;;;;;4974874;28;20093;-78
2023/03/20 02:49:23;;;;;;;46.80;23.87;;;;;;;;;;4971694;28;20023;-78
2023/03/20 02:52:06;;;;;;;44.13;23.00;;;;;;;;;;4975650;28;20034;-78
2023/03/20 02:55:16;;;;;;;48.33;23.97;;;;;;;;;;4977338;28;20034;-79
2023/03/20 02:58:01;;;;;;;37.23;21.70;;;;;;;;;;4971986;28;20031;-79
2023/03/20 03:00:34;;;;;;;48.47;25.50;;;;;;;;;;4987380;28;20089;-79
2023/03/20 03:03:12;;;;;;;41.23;23.80;;;;;;;;;;4971119;28;20027;-79
2023/03/20 03:05:47;;;;;;;42.43;22.53;;;;;;;;;;4971369;28;20061;-78
2023/03/20 03:08:16;;;;;;;40.60;22.00;;;;;;;;;;4987303;28;20026;-78
2023/03/20 03:10:55;;;;;;;42.40;22.87;;;;;;;;;;4987142;28;20019;-78
2023/03/20 03:13:27;;;;;;;43.20;22.33;;;;;;;;;;4970947;28;20463;-79
2023/03/20 03:15:56;;;;;;;43.55;23.33;;;;;;;;;;4972324;28;20088;-79
2023/03/20 03:18:25;;;;;;;40.73;22.40;;;;;;;;;;4970948;28;20089;-79
2023/03/20 03:20:57;;;;;;;42.67;22.87;;;;;;;;;;4972471;28;20022;-79
2023/03/20 03:23:28;;;;;;;;;;;;;;;;;;4972601;28;20030;-79
2023/03/20 03:25:56;;;;;;;42.33;21.37;;;;;;;;;;4970928;28;19910;-78
2023/03/20 03:28:21;;;;;;;40.97;20.60;;;;;;;;;;4971676;28;20030;-79
2023/03/20 03:30:49;;;;;;;36.40;20.30;;;;;;;;;;4971602;28;20109;-78
2023/03/20 03:33:24;;;;;;;31.77;19.20;;;;;;;;;;4971719;28;20658;-78
2023/03/20 03:35:56;;;;;;;40.03;21.50;;;;;;;;;;4970646;28;20125;-78
2023/03/20 03:38:44;;;;;;;34.22;19.40;;;;;;;;;;4986551;28;20050;-79
2023/03/20 03:41:21;;;;;;;37.63;19.80;;;;;;;;;;4967220;28;20122;-78
2023/03/20 03:44:24;;;;;;;33.70;19.30;;;;;;;;;;4951642;28;20027;-77
2023/03/20 03:47:02;;;;;;;36.97;19.80;;;;;;;;;;4951368;28;20480;-78
2023/03/20 03:49:33;;;;;;;42.50;21.53;;;;;;;;;;4952927;28;20062;-79
2023/03/20 03:52:04;;;;;;;36.57;20.60;;;;;;;;;;4967576;28;20028;-79
2023/03/20 03:54:52;;;;;;;40.95;21.98;;;;;;;;;;4935062;29;20479;-79
2023/03/20 03:57:25;;;;;;;39.07;21.33;;;;;;;;;;4966873;28;20062;-78
2023/03/20 03:59:52;;;;;;;41.10;20.73;;;;;;;;;;4951944;28;20504;-78
2023/03/20 04:02:21;;;;;;;35.63;20.10;;;;;;;;;;4951403;28;20486;-78
2023/03/20 04:04:50;;;;;;;35.33;19.00;;;;;;;;;;4954479;28;20058;-78
2023/03/20 04:07:16;;;;;;;38.57;20.40;;;;;;;;;;4955755;28;20039;-78
2023/03/20 04:09:41;;;;;;;37.80;20.70;;;;;;;;;;4958545;28;20055;-78
2023/03/20 04:12:30;;;;;;;41.80;22.23;;;;;;;;;;4970519;28;20034;-78
2023/03/20 04:14:56;;;;;;;46.80;20.37;;;;;;;;;;4964048;28;20027;-78
2023/03/20 04:17:21;;;;;;;40.03;19.90;;;;;;;;;;4961309;28;20023;-78
2023/03/20 04:19:47;;;;;;;38.23;22.10;;;;;;;;;;4953228;28;20228;-76
2023/03/20 04:22:13;;;;;;;39.73;21.80;;;;;;;;;;4951191;28;20027;-77
2023/03/20 04:24:38;;;;;;;43.67;21.57;;;;;;;;;;4952452;28;20019;-78
2023/03/20 04:27:03;;;;;;;37.17;20.67;;;;;;;;;;4951108;28;20042;-79
2023/03/20 04:29:29;;;;;;;41.83;21.47;;;;;;;;;;4967011;28;20158;-79
2023/03/20 04:31:55;;;;;;;35.97;20.77;;;;;;;;;;4952652;28;20027;-79
2023/03/20 04:34:21;;;;;;;35.50;19.77;;;;;;;;;;4966805;28;20083;-79
2023/03/20 04:36:47;;;;;;;34.30;18.50;;;;;;;;;;4966505;28;20042;-79
2023/03/20 04:39:13;;;;;;;36.40;19.20;;;;;;;;;;4969876;28;20038;-80
2023/03/20 04:41:39;;;;;;;29.23;18.30;;;;;;;;;;4971336;28;20035;-79
2023/03/20 04:44:05;;;;;;;36.43;18.60;;;;;;;;;;4971675;28;20406;-77
2023/03/20 04:46:30;;;;;;;33.93;18.73;;;;;;;;;;4969813;28;20034;-77
2023/03/20 04:48:56;;;;;;;34.40;18.90;;;;;;;;;;4970185;28;20498;-78
2023/03/20 04:51:21;;;;;;;30.53;17.77;;;;;;;;;;4969909;28;20078;-80
2023/03/20 04:53:47;;;;;;;35.33;19.23;;;;;;;;;;4969880;28;20454;-79
2023/03/20 04:56:12;;;;;;;37.77;19.90;;;;;;;;;;4970549;28;20490;-79
2023/03/20 04:58:38;;;;;;;36.67;19.87;;;;;;;;;;4978134;28;20042;-78
2023/03/20 05:01:04;;;;;;;32.57;18.97;;;;;;;;;;4973572;28;20034;-79
2023/03/20 05:03:29;;;;;;;33.60;18.43;;;;;;;;;;4973664;28;20023;-78
2023/03/20 05:05:55;;;;;;;33.80;18.03;;;;;;;;;;4983259;28;20038;-77
2023/03/20 05:08:20;;;;;;;31.83;17.40;;;;;;;;;;4976007;28;20114;-80
2023/03/20 05:10:46;;;;;;;30.07;17.47;;;;;;;;;;4974148;28;20034;-79
2023/03/20 05:13:11;;;;;;;28.97;16.70;;;;;;;;;;4977883;28;20073;-81
2023/03/20 05:15:38;;;;;;;34.93;16.97;;;;;;;;;;4977860;28;20031;-79
2023/03/20 05:18:03;;;;;;;31.87;17.60;;;;;;;;;;4979114;28;20030;-79
2023/03/20 05:20:29;;;;;;;29.47;15.83;;;;;;;;;;4984870;28;20043;-79
2023/03/20 05:22:54;;;;;;;30.23;16.87;;;;;;;;;;4978794;28;20035;-78
2023/03/20 05:25:20;;;;;;;27.73;16.60;;;;;;;;;;4977607;28;20460;-76
2023/03/20 05:27:46;;;;;;;30.27;17.33;;;;;;;;;;4980838;28;20070;-78
2023/03/20 05:30:13;;;;;;;30.10;16.67;;;;;;;;;;4975210;28;20027;-78
2023/03/20 05:32:40;;;;;;;27.00;15.43;;;;;;;;;;4974019;28;20069;-78
2023/03/20 05:35:06;;;;;;;28.87;15.83;;;;;;;;;;4973369;28;20039;-78
2023/03/20 05:37:32;;;;;;;37.03;16.23;;;;;;;;;;4973499;28;20065;-78
2023/03/20 05:39:57;;;;;;;28.80;16.43;;;;;;;;;;4973433;28;20027;-79
2023/03/20 05:42:23;;;;;;;30.47;15.77;;;;;;;;;;4973073;28;20042;-74
2023/03/20 05:44:49;;;;;;;27.53;17.27;;;;;;;;;;4964494;28;20333;-75
2023/03/20 05:47:14;;;;;;;34.23;18.20;;;;;;;;;;4963097;28;20113;-74
2023/03/20 05:49:40;;;;;;;30.37;16.70;;;;;;;;;;4973293;28;20125;-74
2023/03/20 05:52:06;;;;;;;37.40;20.10;;;;;;;;;;4971401;28;20069;-76
2023/03/20 05:54:31;;;;;;;27.43;15.77;;;;;;;;;;4970687;28;20094;-74
2023/03/20 05:56:57;;;;;;;25.23;14.53;;;;;;;;;;4969248;28;20031;-74
2023/03/20 05:59:24;;;;;;;24.20;14.73;;;;;;;;;;4968913;28;20499;-73
2023/03/20 06:01:50;;;;;;;28.80;15.23;;;;;;;;;;4969851;28;20159;-75
2023/03/20 06:04:16;;;;;;;27.23;15.77;;;;;;;;;;4971186;28;20034;-75
2023/03/20 06:06:41;;;;;;;28.43;17.37;;;;;;;;;;4954894;28;20049;-73
2023/03/20 06:09:08;;;;;;;41.57;15.70;;;;;;;;;;4970794;28;20112;-75
2023/03/20 06:11:35;;;;;;;34.93;15.93;;;;;;;;;;4971547;28;20042;-75
2023/03/20 06:14:01;;;;;;;29.77;16.07;;;;;;;;;;4972342;28;20107;-74
2023/03/20 06:16:26;;;;;;;27.20;14.70;;;;;;;;;;4956649;28;20034;-73
2023/03/20 06:18:52;;;;;;;28.50;15.90;;;;;;;;;;4970289;28;20062;-75
2023/03/20 06:21:18;;;;;;;41.13;16.60;;;;;;;;;;4962684;28;20039;-77
2023/03/20 06:23:43;;;;;;;25.13;14.47;;;;;;;;;;4961088;28;20031;-73
2023/03/20 06:26:09;;;;;;;25.93;14.47;;;;;;;;;;4967454;28;20046;-72
2023/03/20 06:28:38;;;;;;;27.03;14.17;;;;;;;;;;4977826;28;20038;-75
2023/03/20 06:31:03;;;;;;;30.53;17.47;;;;;;;;;;4971981;28;20030;-75
2023/03/20 06:33:29;;;;;;;24.27;15.10;;;;;;;;;;4970402;28;21147;-73
2023/03/20 06:35:56;;;;;;;25.20;14.23;;;;;;;;;;4969678;28;20113;-74
2023/03/20 06:38:26;;;;;;;24.58;14.45;;;;;;;;;;4967303;28;20062;-74
2023/03/20 06:40:51;;;;;;;22.77;13.73;;;;;;;;;;4964484;28;20088;-74
2023/03/20 06:43:18;;;;;;;28.42;14.07;;;;;;;;;;4967344;28;20593;-76
2023/03/20 06:45:43;;;;;;;25.83;14.57;;;;;;;;;;4967461;28;20172;-73
2023/03/20 06:48:10;;;;;;;24.23;13.93;;;;;;;;;;4968193;28;20154;-72
2023/03/20 06:50:38;;;;;;;23.33;14.20;;;;;;;;;;4970654;28;20077;-73
2023/03/20 06:53:04;;;;;;;31.17;15.77;;;;;;;;;;4967542;28;20078;-74
2023/03/20 06:55:30;;;;;;;22.95;14.43;;;;;;;;;;4966052;28;20098;-75
2023/03/20 06:57:55;;;;;;;26.90;16.35;;;;;;;;;;4964901;28;20452;-73
2023/03/20 07:00:21;;;;;;;24.92;15.35;;;;;;;;;;4968903;28;20026;-74
2023/03/20 07:02:47;;;;;;;26.80;14.48;;;;;;;;;;4967356;28;20124;-76
2023/03/20 07:05:13;;;;;;;23.97;15.23;;;;;;;;;;4964043;28;20034;-74
2023/03/20 07:07:39;;;;;;;24.85;13.30;;;;;;;;;;4957536;28;20043;-75
2023/03/20 07:10:06;;;;;;;22.95;15.02;;;;;;;;;;4967357;28;20030;-76
2023/03/20 07:12:31;;;;;;;24.88;14.32;;;;;;;;;;4962177;28;20046;-75
2023/03/20 07:14:57;;;;;;;26.73;14.43;;;;;;;;;;4968896;28;20336;-75
2023/03/20 07:17:22;;;;;;;28.05;15.10;;;;;;;;;;4968583;28;20058;-74
2023/03/20 07:19:49;;;;;;;21.63;13.80;;;;;;;;;;4967229;28;20030;-73
2023/03/20 07:22:26;;;;;;;25.42;14.07;;;;;;;;;;4969473;28;20125;-74
2023/03/20 07:24:52;;;;;;;22.83;14.15;;;;;;;;;;4961726;28;20159;-73
2023/03/20 07:27:18;;;;;;;27.73;15.63;;;;;;;;;;4960053;28;20470;-75
2023/03/20 07:29:45;;;;;;;31.77;16.25;;;;;;;;;;4964651;28;20132;-76
2023/03/20 07:32:10;;;;;;;32.53;16.92;;;;;;;;;;4960763;28;20068;-74
2023/03/20 07:34:36;;;;;;;25.02;15.18;;;;;;;;;;4957327;28;20027;-72
2023/03/20 07:37:03;;;;;;;31.67;16.40;;;;;;;;;;4954828;28;20074;-73
2023/03/20 07:39:29;;;;;;;27.48;15.85;;;;;;;;;;4960481;28;20081;-73
2023/03/20 07:41:56;;;;;;;25.42;15.73;;;;;;;;;;4958708;28;20050;-73
2023/03/20 07:44:23;;;;;;;27.80;15.25;;;;;;;;;;4965506;28;20042;-74
2023/03/20 07:46:49;;;;;;;23.05;14.63;;;;;;;;;;4966414;28;20030;-74
2023/03/20 07:49:19;;;;;;;25.38;15.52;;;;;;;;;;4952096;28;20039;-77
2023/03/20 07:51:49;;;;;;;29.65;14.55;;;;;;;;;;4964975;28;20404;-76
2023/03/20 07:54:15;;;;;;;27.35;14.90;;;;;;;;;;4959087;28;20495;-74
2023/03/20 07:56:41;;;;;;;27.85;14.98;;;;;;;;;;4953891;28;20212;-72
2023/03/20 07:59:06;;;;;;;26.20;14.90;;;;;;;;;;4959092;28;20065;-75
2023/03/20 08:01:32;;;;;;;28.45;14.75;;;;;;;;;;4979885;28;20042;-73
2023/03/20 08:03:59;;;;;;;31.17;15.18;;;;;;;;;;4954845;28;20030;-75
2023/03/20 08:06:25;;;;;;;25.73;14.80;;;;;;;;;;4955094;28;20027;-75
2023/03/20 08:08:51;;;;;;;22.92;13.60;;;;;;;;;;4952783;28;20802;-74
2023/03/20 08:11:18;;;;;;;22.67;13.93;;;;;;;;;;4953024;28;20385;-77
2023/03/20 08:13:44;;;;;;;27.45;15.15;;;;;;;;;;4960495;28;20686;-72
2023/03/20 08:16:11;;;;;;;23.30;14.10;;;;;;;;;;4957767;28;20037;-73
2023/03/20 08:18:37;;;;;;;22.27;12.80;;;;;;;;;;4964258;28;20448;-74
2023/03/20 08:21:03;;;;;;;22.50;13.90;;;;;;;;;;4954016;28;20824;-73
2023/03/20 08:23:29;;;;;;;23.40;12.63;;;;;;;;;;4937706;28;20030;-75
2023/03/20 08:25:55;;;;;;;23.25;13.38;;;;;;;;;;4954460;28;20060;-75
2023/03/20 08:28:22;;;;;;;23.30;14.50;;;;;;;;;;4957451;28;20153;-74
2023/03/20 08:30:48;;;;;;;25.33;13.65;;;;;;;;;;4956096;28;20030;-76
2023/03/20 08:33:15;;;;;;;24.95;13.70;;;;;;;;;;4954002;28;20089;-71
2023/03/20 08:35:42;;;;;;;28.40;15.32;;;;;;;;;;4953949;28;20092;-75
2023/03/20 08:38:12;;;;;;;20.08;12.13;;;;;;;;;;4970799;28;20065;-73
2023/03/20 08:40:41;;;;;;;26.08;14.05;;;;;;;;;;4957858;28;20754;-73
2023/03/20 08:43:08;;;;;;;22.00;13.63;;;;;;;;;;4962182;28;20035;-72
2023/03/20 08:45:34;;;;;;;20.58;11.65;;;;;;;;;;4956625;28;20505;-72
2023/03/20 08:48:00;;;;;;;19.92;11.93;;;;;;;;;;4956040;28;20042;-74
2023/03/20 08:50:31;;;;;;;23.92;12.18;;;;;;;;;;4953848;28;20369;-80
2023/03/20 08:52:57;;;;;;;22.80;13.27;;;;;;;;;;4965639;28;20395;-75
2023/03/20 08:55:23;;;;;;;23.73;12.70;;;;;;;;;;4959593;28;20049;-73
2023/03/20 08:57:56;;;;;;;20.02;13.45;;;;;;;;;;4960625;28;20475;-75
2023/03/20 09:00:22;;;;;;;17.55;11.35;;;;;;;;;;4964133;28;20058;-75
2023/03/20 09:02:49;;;;;;;16.20;11.38;;;;;;;;;;4959824;28;20039;-75
2023/03/20 09:05:16;;;;;;;23.00;12.40;;;;;;;;;;4966001;28;20022;-75
2023/03/20 09:07:42;;;;;;;17.25;11.07;;;;;;;;;;4970072;28;20093;-74
2023/03/20 09:10:10;;;;;;;21.80;12.95;;;;;;;;;;4968558;28;20029;-73
2023/03/20 09:12:36;;;;;;;18.67;11.00;;;;;;;;;;4971705;28;20103;-77
2023/03/20 09:15:04;;;;;;;18.02;11.45;;;;;;;;;;4968762;28;20069;-73
2023/03/20 09:17:33;;;;;;;23.42;11.45;;;;;;;;;;4970030;28;20134;-74
2023/03/20 09:19:59;;;;;;;16.52;11.32;;;;;;;;;;4965276;28;20030;-73
2023/03/20 09:22:25;;;;;;;17.63;11.50;;;;;;;;;;4983463;28;20414;-75
2023/03/20 09:24:53;;;;;;;18.15;11.68;;;;;;;;;;4965640;28;20066;-74
2023/03/20 09:27:20;;;;;;;20.65;11.95;;;;;;;;;;4962137;28;20138;-77
2023/03/20 09:29:46;;;;;;;17.33;9.90;;;;;;;;;;4960258;28;20831;-74
2023/03/20 09:32:13;;;;;;;16.58;10.57;;;;;;;;;;4962859;28;20041;-72
2023/03/20 09:34:42;;;;;;;20.02;10.55;;;;;;;;;;4961244;28;20033;-74
2023/03/20 09:37:08;;;;;;;23.33;11.45;;;;;;;;;;4969213;28;20067;-78
2023/03/20 09:39:35;;;;;;;15.18;9.75;;;;;;;;;;4953719;28;20041;-76
2023/03/20 09:42:31;;;;;;;15.98;10.15;;;;;;;;;;4948946;28;20026;-76
2023/03/20 09:45:20;;;;;;;14.13;9.95;;;;;;;;;;4954589;28;20687;-73
2023/03/20 09:48:12;;;;;;;17.13;9.25;;;;;;;;;;4957878;28;20085;-75
2023/03/20 09:51:17;;;;;;;13.57;8.55;;;;;;;;;;4954108;28;20061;-69
2023/03/20 09:53:58;;;;;;;13.57;8.63;;;;;;;;;;4961086;28;20028;-75
2023/03/20 09:56:30;;;;;;;14.85;7.88;;;;;;;;;;4963813;28;20038;-73
2023/03/20 09:58:57;;;;;;;;;;;;;;;;;;4969690;28;20189;-69
2023/03/20 10:01:45;;;;;;;12.05;7.30;;;;;;;;;;4979555;28;19921;-70
2023/03/20 10:04:11;;;;;;;11.95;7.15;;;;;;;;;;4963794;28;20456;-74
2023/03/20 10:06:37;;;;;;;9.63;5.88;;;;;;;;;;4953664;28;20165;-80
2023/03/20 10:09:20;;;;;;;11.50;7.22;;;;;;;;;;4954173;28;20031;-74
2023/03/20 10:12:13;;;;;;;12.38;6.00;;;;;;;;;;4956334;28;21137;-75
2023/03/20 10:15:21;;;;;;;13.35;6.40;;;;;;;;;;4962987;28;20045;-74
2023/03/20 10:18:12;;;;;;;7.97;5.07;;;;;;;;;;4948151;28;20085;-75
2023/03/20 10:20:51;;;;;;;14.10;4.57;;;;;;;;;;4958540;28;20505;-74
2023/03/20 10:23:39;;;;;;;7.35;3.67;;;;;;;;;;4955299;28;20038;-74
2023/03/20 10:26:20;;;;;;;8.25;4.28;;;;;;;;;;4959441;28;20070;-73
2023/03/20 10:29:00;;;;;;;7.57;3.80;;;;;;;;;;4966117;28;20046;-72
2023/03/20 10:31:50;;;;;;;10.43;4.00;;;;;;;;;;4962068;28;20038;-74
2023/03/20 10:34:43;;;;;;;7.30;3.10;;;;;;;;;;4963221;28;20048;-72
2023/03/20 10:37:31;;;;;;;6.20;3.15;;;;;;;;;;4962244;28;20047;-73
2023/03/20 10:40:22;;;;;;;5.18;2.90;;;;;;;;;;4966130;28;20050;-73
2023/03/20 10:42:53;;;;;;;6.20;2.97;;;;;;;;;;4960068;28;20065;-73
2023/03/20 10:45:37;;;;;;;9.75;4.60;;;;;;;;;;4958908;28;21664;-72
2023/03/20 10:48:26;;;;;;;7.30;3.40;;;;;;;;;;4965942;28;20094;-74
2023/03/20 10:50:57;;;;;;;5.10;2.85;;;;;;;;;;4967210;28;20315;-74
2023/03/20 10:54:09;;;;;;;8.82;2.30;;;;;;;;;;4977490;28;20443;-75
2023/03/20 10:56:39;;;;;;;2.80;1.88;;;;;;;;;;4963404;28;20035;-74
2023/03/20 10:59:41;;;;;;;4.38;1.90;;;;;;;;;;4964262;28;20093;-73
2023/03/20 11:02:18;;;;;;;3.42;1.50;;;;;;;;;;4962924;28;20074;-74
2023/03/20 11:04:47;;;;;;;7.70;1.40;;;;;;;;;;4962553;28;20085;-74
2023/03/20 11:07:20;;;;;;;2.58;1.40;;;;;;;;;;4966631;28;20026;-74
2023/03/20 11:10:26;;;;;;;2.13;1.65;;;;;;;;;;4967825;28;20045;-73
2023/03/20 11:13:57;;;;;;;5.15;1.70;;;;;;;;;;4967733;28;20066;-73
2023/03/20 11:19:07;;;;;;;3.75;1.60;;;;;;;;;;4994860;28;20080;-74
2023/03/20 11:21:43;;;;;;;8.02;1.67;;;;;;;;;;4999184;28;20033;-74
2023/03/20 11:24:36;;;;;;;8.88;2.33;;;;;;;;;;4986577;28;20423;-73
2023/03/20 11:27:18;;;;;;;9.25;2.63;;;;;;;;;;4999499;28;20022;-74
2023/03/20 11:29:49;;;;;;;4.38;1.88;;;;;;;;;;4993285;28;20868;-73
2023/03/20 11:32:30;;;;;;;4.93;1.92;;;;;;;;;;5008087;28;20038;-72
2023/03/20 11:35:26;;;;;;;5.47;1.67;;;;;;;;;;4994475;28;20102;-79
2023/03/20 11:38:12;;;;;;;8.30;2.03;;;;;;;;;;4993217;28;20392;-72
2023/03/20 11:40:48;;;;;;;2.35;1.70;;;;;;;;;;5002133;28;20060;-75
2023/03/20 11:43:18;;;;;;;4.43;2.60;;;;;;;;;;4998993;28;20033;-76
2023/03/20 11:45:58;;;;;;;3.70;1.92;;;;;;;;;;5009168;28;20041;-73
2023/03/20 11:48:35;;;;;;;3.05;2.05;;;;;;;;;;5004643;28;20032;-72
2023/03/20 11:51:19;;;;;;;4.72;2.25;;;;;;;;;;4990335;28;20053;-74
2023/03/20 11:54:00;;;;;;;8.52;3.28;;;;;;;;;;5000163;28;20049;-73
2023/03/20 11:56:28;;;;;;;3.17;2.08;;;;;;;;;;4981627;28;20377;-73
2023/03/20 11:59:13;;;;;;;13.73;2.38;;;;;;;;;;4995669;28;20651;-73
2023/03/20 12:01:51;;;;;;;4.63;2.25;;;;;;;;;;4986082;28;20701;-75
2023/03/20 12:04:28;;;;;;;9.27;2.90;;;;;;;;;;4991687;28;20065;-73
2023/03/20 12:07:25;;;;;;;7.55;3.53;;;;;;;;;;4996558;28;20513;-74
2023/03/20 12:09:58;;;;;;;9.73;3.83;;;;;;;;;;4999994;28;20054;-74
2023/03/20 12:12:49;;;;;;;5.13;3.40;;;;;;;;;;5002663;28;20029;-74
2023/03/20 12:15:29;;;;;;;4.97;1.88;;;;;;;;;;4999230;28;20030;-74
2023/03/20 12:18:00;;;;;;;8.05;2.22;;;;;;;;;;4992422;28;20136;-76
2023/03/20 12:20:49;;;;;;;5.47;2.60;;;;;;;;;;4988774;28;20030;-75
2023/03/20 12:23:27;;;;;;;7.03;2.30;;;;;;;;;;4986460;28;20113;-76
2023/03/20 12:26:03;;;;;;;3.35;2.08;;;;;;;;;;4983937;28;20022;-74
2023/03/20 12:29:03;;;;;;;5.00;2.80;;;;;;;;;;4979687;28;20069;-75
2023/03/20 12:31:44;;;;;;;2.65;1.63;;;;;;;;;;4980071;28;20475;-75
2023/03/20 12:34:10;;;;;;;;;;;;;;;;;;4984170;28;20023;-77
2023/03/20 12:36:47;;;;;;;3.55;1.83;;;;;;;;;;4990125;28;19914;-74
2023/03/20 12:39:23;;;;;;;5.82;1.92;;;;;;;;;;4988438;28;20023;-75
2023/03/20 12:41:57;;;;;;;8.75;2.20;;;;;;;;;;4969933;28;20364;-73
2023/03/20 12:44:29;;;;;;;2.80;1.40;;;;;;;;;;4982883;28;20081;-73
2023/03/20 12:47:21;;;;;;;7.30;1.55;;;;;;;;;;4985629;28;20066;-73
2023/03/20 12:50:19;;;;;;;5.72;1.90;;;;;;;;;;4987979;28;20125;-73
2023/03/20 12:53:10;;;;;;;4.05;2.10;;;;;;;;;;4985181;28;20040;-74
2023/03/20 12:56:05;;;;;;;3.70;2.17;;;;;;;;;;4981518;28;20558;-73
2023/03/20 12:58:46;;;;;;;7.43;1.25;;;;;;;;;;4982465;28;20125;-73
2023/03/20 13:01:16;;;;;;;2.72;1.08;;;;;;;;;;4985102;28;20050;-76
2023/03/20 13:03:58;;;;;;;4.53;1.45;;;;;;;;;;4979517;28;20080;-74
2023/03/20 13:06:50;;;;;;;2.88;1.13;;;;;;;;;;4981335;28;20038;-74
2023/03/20 13:09:29;;;;;;;3.13;1.10;;;;;;;;;;4982428;28;20227;-74
2023/03/20 13:12:15;;;;;;;2.50;1.30;;;;;;;;;;4984219;28;20035;-75
2023/03/20 13:14:51;;;;;;;2.25;1.35;;;;;;;;;;4984146;28;20061;-74
2023/03/20 13:17:44;;;;;;;4.65;1.00;;;;;;;;;;4996768;28;20057;-73
2023/03/20 13:20:53;;;;;;;4.93;1.38;;;;;;;;;;4984151;28;20137;-75
2023/03/20 13:23:24;;;;;;;2.58;1.40;;;;;;;;;;4986699;28;20129;-75
2023/03/20 13:26:20;;;;;;;11.02;2.38;;;;;;;;;;4982106;28;20037;-73
2023/03/20 13:29:02;;;;;;;4.72;2.15;;;;;;;;;;4983146;28;20033;-75
2023/03/20 13:31:46;;;;;;;7.95;2.08;;;;;;;;;;5000741;28;20038;-74
2023/03/20 13:34:12;;;;;;;3.33;1.85;;;;;;;;;;4987164;28;20038;-74
2023/03/20 13:36:38;;;;;;;3.58;1.63;;;;;;;;;;4981945;28;20031;-74
2023/03/20 13:39:21;;;;;;;3.08;2.03;;;;;;;;;;4992062;28;20034;-74
2023/03/20 13:41:48;;;;;;;9.70;3.00;;;;;;;;;;4994113;28;20049;-75
2023/03/20 13:44:19;;;;;;;3.40;1.80;;;;;;;;;;4979557;28;20073;-74
2023/03/20 13:46:52;;;;;;;6.20;2.53;;;;;;;;;;4986413;28;20071;-74
2023/03/20 13:49:36;;;;;;;17.38;2.20;;;;;;;;;;4975726;28;20030;-72
2023/03/20 13:52:16;;;;;;;8.45;2.03;;;;;;;;;;4999130;28;20036;-74
2023/03/20 13:55:23;;;;;;;21.42;4.80;;;;;;;;;;4992346;28;20041;-74
2023/03/20 13:58:22;;;;;;;4.22;1.77;;;;;;;;;;4980191;28;20555;-75
2023/03/20 14:01:16;;;;;;;2.22;1.63;;;;;;;;;;4985700;28;20034;-76
2023/03/20 14:03:47;;;;;;;8.35;1.92;;;;;;;;;;4990007;28;20117;-76
2023/03/20 14:06:31;;;;;;;3.05;2.15;;;;;;;;;;4988459;28;20041;-75
2023/03/20 14:08:58;;;;;;;4.88;1.83;;;;;;;;;;4988753;28;20101;-75
2023/03/20 14:11:37;;;;;;;5.03;1.85;;;;;;;;;;4985573;28;20138;-74
2023/03/20 14:14:06;;;;;;;2.38;1.58;;;;;;;;;;4990566;28;20046;-74
2023/03/20 14:16:32;;;;;;;2.30;1.60;;;;;;;;;;4993931;28;20033;-73
2023/03/20 14:19:18;;;;;;;6.88;1.90;;;;;;;;;;4994388;28;20058;-73
2023/03/20 14:21:47;;;;;;;4.72;1.95;;;;;;;;;;4987122;28;20058;-74
2023/03/20 14:24:16;;;;;;;2.67;1.60;;;;;;;;;;4991008;28;20050;-76
2023/03/20 14:26:46;;;;;;;3.85;1.60;;;;;;;;;;4983875;28;20108;-75
2023/03/20 14:29:19;;;;;;;2.33;1.60;;;;;;;;;;4987207;28;20038;-74
2023/03/20 14:31:50;;;;;;;2.33;1.65;;;;;;;;;;4981446;28;20049;-74
2023/03/20 14:34:24;;;;;;;7.38;1.67;;;;;;;;;;4987592;28;20097;-74
2023/03/20 14:37:00;;;;;;;2.90;1.23;;;;;;;;;;4991632;28;20478;-75
2023/03/20 14:40:08;;;;;;;4.43;1.25;;;;;;;;;;4982818;28;20104;-75
2023/03/20 14:42:51;;;;;;;2.75;1.00;;;;;;;;;;4983981;28;20042;-74
2023/03/20 14:45:35;;;;;;;1.33;0.75;;;;;;;;;;4997102;28;20022;-74
2023/03/20 14:48:14;;;;;;;3.17;1.30;;;;;;;;;;4985200;28;20126;-75
2023/03/20 14:51:05;;;;;;;1.67;0.77;;;;;;;;;;5000117;28;20058;-75
2023/03/20 14:53:32;;;;;;;2.38;0.88;;;;;;;;;;4995908;28;20027;-75
2023/03/20 14:56:06;;;;;;;2.38;0.90;;;;;;;;;;4984857;28;20061;-73
2023/03/20 14:58:50;;;;;;;3.33;1.00;;;;;;;;;;4987594;28;20046;-74
2023/03/20 15:02:01;;;;;;;2.08;0.80;;;;;;;;;;4977878;28;20034;-75
2023/03/20 15:04:32;;;;;;;3.97;0.95;;;;;;;;;;4942263;28;20027;-75